sensor_id;sensor_type;location;lat;lon;timestamp;pressure;altitude;pressure_sealevel;temperature;humidity
10006;BME280;5042;42.626;23.382;2023-07-29T00:01:12;94286.56;;;19.43;94.25
10006;BME280;5042;42.626;23.382;2023-07-29T00:03:39;94275.72;;;19.28;95.08
10006;BME280;5042;42.626;23.382;2023-07-29T00:06:06;94277.13;;;19.14;96.60
10006;BME280;5042;42.626;23.382;2023-07-29T00:08:33;94274.16;;;18.93;97.75
10006;BME280;5042;42.626;23.382;2023-07-29T00:10:59;94280.06;;;18.78;99.69
10006;BME280;5042;42.626;23.382;2023-07-29T00:13:26;94279.94;;;18.73;100.00
10006;BME280;5042;42.626;23.382;2023-07-29T00:15:55;94272.56;;;18.58;100.00
10006;BME280;5042;42.626;23.382;2023-07-29T00:18:22;94288.06;;;18.67;100.00
10006;BME280;5042;42.626;23.382;2023-07-29T00:20:49;94280.09;;;18.50;100.00
10006;BME280;5042;42.626;23.382;2023-07-29T00:23:17;94283.47;;;18.45;100.00
10006;BME280;5042;42.626;23.382;2023-07-29T00:25:44;94266.50;;;18.29;100.00
10006;BME280;5042;42.626;23.382;2023-07-29T00:28:11;94269.53;;;18.21;100.00
10006;BME280;5042;42.626;23.382;2023-07-29T00:30:38;94274.63;;;18.22;100.00
10006;BME280;5042;42.626;23.382;2023-07-29T00:33:06;94280.66;;;18.18;100.00
10006;BME280;5042;42.626;23.382;2023-07-29T00:35:33;94275.47;;;18.11;100.00
10006;BME280;5042;42.626;23.382;2023-07-29T00:37:59;94280.13;;;18.04;100.00
10006;BME280;5042;42.626;23.382;2023-07-29T00:40:28;94262.66;;;17.79;100.00
10006;BME280;5042;42.626;23.382;2023-07-29T00:42:55;94215.97;;;17.21;100.00
10006;BME280;5042;42.626;23.382;2023-07-29T00:45:23;94231.06;;;17.09;100.00
10006;BME280;5042;42.626;23.382;2023-07-29T00:47:51;94264.22;;;17.23;100.00
10006;BME280;5042;42.626;23.382;2023-07-29T00:50:19;94263.84;;;17.20;100.00
10006;BME280;5042;42.626;23.382;2023-07-29T00:52:46;94262.25;;;17.19;100.00
10006;BME280;5042;42.626;23.382;2023-07-29T00:55:13;94260.75;;;17.23;100.00
10006;BME280;5042;42.626;23.382;2023-07-29T00:57:39;94264.56;;;17.15;100.00
10006;BME280;5042;42.626;23.382;2023-07-29T01:00:08;94265.84;;;17.12;100.00
10006;BME280;5042;42.626;23.382;2023-07-29T01:02:36;94255.22;;;17.24;100.00
10006;BME280;5042;42.626;23.382;2023-07-29T01:05:03;94257.50;;;17.44;100.00
10006;BME280;5042;42.626;23.382;2023-07-29T01:07:37;94260.28;;;17.37;100.00
10006;BME280;5042;42.626;23.382;2023-07-29T01:10:12;94259.00;;;17.28;100.00
10006;BME280;5042;42.626;23.382;2023-07-29T01:12:49;94255.78;;;17.26;100.00
10006;BME280;5042;42.626;23.382;2023-07-29T01:15:21;94251.00;;;17.11;100.00
10006;BME280;5042;42.626;23.382;2023-07-29T01:17:52;94235.22;;;17.05;100.00
10006;BME280;5042;42.626;23.382;2023-07-29T01:20:21;94263.78;;;17.03;100.00
10006;BME280;5042;42.626;23.382;2023-07-29T01:22:51;94266.31;;;16.86;100.00
10006;BME280;5042;42.626;23.382;2023-07-29T01:25:19;94261.50;;;16.94;100.00
10006;BME280;5042;42.626;23.382;2023-07-29T01:27:48;94261.00;;;16.98;100.00
10006;BME280;5042;42.626;23.382;2023-07-29T01:30:16;94251.56;;;17.02;100.00
10006;BME280;5042;42.626;23.382;2023-07-29T01:32:50;94260.53;;;17.12;100.00
10006;BME280;5042;42.626;23.382;2023-07-29T01:35:23;94258.31;;;17.33;100.00
10006;BME280;5042;42.626;23.382;2023-07-29T01:37:52;94257.53;;;17.32;100.00
10006;BME280;5042;42.626;23.382;2023-07-29T01:40:25;94256.25;;;17.35;100.00
10006;BME280;5042;42.626;23.382;2023-07-29T01:42:53;94251.09;;;17.16;100.00
10006;BME280;5042;42.626;23.382;2023-07-29T01:45:23;94261.00;;;17.09;100.00
10006;BME280;5042;42.626;23.382;2023-07-29T01:47:50;94252.69;;;17.06;100.00
10006;BME280;5042;42.626;23.382;2023-07-29T01:50:16;94259.06;;;16.93;100.00
10006;BME280;5042;42.626;23.382;2023-07-29T01:52:43;94263.09;;;16.95;100.00
10006;BME280;5042;42.626;23.382;2023-07-29T01:55:10;94256.63;;;16.91;100.00
10006;BME280;5042;42.626;23.382;2023-07-29T01:57:38;94260.22;;;16.85;100.00
10006;BME280;5042;42.626;23.382;2023-07-29T02:00:06;94266.22;;;16.81;100.00
10006;BME280;5042;42.626;23.382;2023-07-29T02:02:33;94260.41;;;16.72;100.00
10006;BME280;5042;42.626;23.382;2023-07-29T02:05:00;94262.16;;;16.66;100.00
10006;BME280;5042;42.626;23.382;2023-07-29T02:07:26;94262.03;;;16.61;100.00
10006;BME280;5042;42.626;23.382;2023-07-29T02:09:53;94265.59;;;16.55;100.00
10006;BME280;5042;42.626;23.382;2023-07-29T02:12:20;94267.19;;;16.56;100.00
10006;BME280;5042;42.626;23.382;2023-07-29T02:14:48;94258.91;;;16.52;100.00
10006;BME280;5042;42.626;23.382;2023-07-29T02:17:14;94265.38;;;16.57;100.00
10006;BME280;5042;42.626;23.382;2023-07-29T02:19:41;94270.53;;;16.51;100.00
10006;BME280;5042;42.626;23.382;2023-07-29T02:22:08;94268.00;;;16.57;100.00
10006;BME280;5042;42.626;23.382;2023-07-29T02:24:34;94273.53;;;16.55;100.00
10006;BME280;5042;42.626;23.382;2023-07-29T02:27:01;94273.16;;;16.63;100.00
10006;BME280;5042;42.626;23.382;2023-07-29T02:29:28;94275.81;;;16.51;100.00
10006;BME280;5042;42.626;23.382;2023-07-29T02:31:57;94277.31;;;16.47;100.00
10006;BME280;5042;42.626;23.382;2023-07-29T02:34:23;94274.09;;;16.45;100.00
10006;BME280;5042;42.626;23.382;2023-07-29T02:36:50;94272.34;;;16.39;100.00
10006;BME280;5042;42.626;23.382;2023-07-29T02:39:17;94266.00;;;16.28;100.00
10006;BME280;5042;42.626;23.382;2023-07-29T02:41:44;94252.41;;;16.25;100.00
10006;BME280;5042;42.626;23.382;2023-07-29T02:44:10;94266.22;;;16.27;100.00
10006;BME280;5042;42.626;23.382;2023-07-29T02:46:37;94261.84;;;16.21;100.00
10006;BME280;5042;42.626;23.382;2023-07-29T02:49:05;94262.78;;;16.26;100.00
10006;BME280;5042;42.626;23.382;2023-07-29T02:51:32;94260.03;;;16.33;100.00
10006;BME280;5042;42.626;23.382;2023-07-29T02:53:58;94256.00;;;16.30;100.00
10006;BME280;5042;42.626;23.382;2023-07-29T02:56:25;94254.75;;;16.33;100.00
10006;BME280;5042;42.626;23.382;2023-07-29T02:58:52;94259.56;;;16.36;100.00
10006;BME280;5042;42.626;23.382;2023-07-29T03:01:18;94264.41;;;16.39;100.00
10006;BME280;5042;42.626;23.382;2023-07-29T03:03:45;94262.59;;;16.51;100.00
10006;BME280;5042;42.626;23.382;2023-07-29T03:06:14;94267.88;;;16.40;100.00
10006;BME280;5042;42.626;23.382;2023-07-29T03:08:41;94266.47;;;16.37;100.00
10006;BME280;5042;42.626;23.382;2023-07-29T03:11:08;94155.84;;;15.68;100.00
10006;BME280;5042;42.626;23.382;2023-07-29T03:13:35;94273.72;;;16.42;100.00
10006;BME280;5042;42.626;23.382;2023-07-29T03:16:06;94270.72;;;16.26;100.00
10006;BME280;5042;42.626;23.382;2023-07-29T03:18:32;94276.22;;;16.25;100.00
10006;BME280;5042;42.626;23.382;2023-07-29T03:20:59;94276.69;;;16.22;100.00
10006;BME280;5042;42.626;23.382;2023-07-29T03:23:29;94286.59;;;16.26;100.00
10006;BME280;5042;42.626;23.382;2023-07-29T03:25:56;94289.81;;;16.28;100.00
10006;BME280;5042;42.626;23.382;2023-07-29T03:28:24;94284.16;;;16.25;100.00
10006;BME280;5042;42.626;23.382;2023-07-29T03:30:51;94287.38;;;16.27;100.00
10006;BME280;5042;42.626;23.382;2023-07-29T03:33:18;94280.25;;;16.27;100.00
10006;BME280;5042;42.626;23.382;2023-07-29T03:35:44;94269.09;;;16.14;100.00
10006;BME280;5042;42.626;23.382;2023-07-29T03:38:11;94289.09;;;16.21;100.00
10006;BME280;5042;42.626;23.382;2023-07-29T03:40:40;94291.41;;;16.29;100.00
10006;BME280;5042;42.626;23.382;2023-07-29T03:43:07;94278.06;;;16.24;100.00
10006;BME280;5042;42.626;23.382;2023-07-29T03:45:34;94286.91;;;16.30;100.00
10006;BME280;5042;42.626;23.382;2023-07-29T03:48:01;94287.50;;;16.32;100.00
10006;BME280;5042;42.626;23.382;2023-07-29T03:50:28;94286.03;;;16.36;100.00
10006;BME280;5042;42.626;23.382;2023-07-29T03:52:55;94252.84;;;16.10;100.00
10006;BME280;5042;42.626;23.382;2023-07-29T03:55:22;94282.91;;;16.39;100.00
10006;BME280;5042;42.626;23.382;2023-07-29T03:57:50;94275.44;;;16.36;100.00
10006;BME280;5042;42.626;23.382;2023-07-29T04:00:17;94281.19;;;16.33;100.00
10006;BME280;5042;42.626;23.382;2023-07-29T04:02:44;94286.16;;;16.41;100.00
10006;BME280;5042;42.626;23.382;2023-07-29T04:05:11;94287.53;;;16.44;100.00
10006;BME280;5042;42.626;23.382;2023-07-29T04:07:37;94288.16;;;16.69;100.00
10006;BME280;5042;42.626;23.382;2023-07-29T04:10:06;94285.53;;;17.05;100.00
10006;BME280;5042;42.626;23.382;2023-07-29T04:12:33;94288.78;;;17.59;100.00
10006;BME280;5042;42.626;23.382;2023-07-29T04:15:01;94271.13;;;18.05;100.00
10006;BME280;5042;42.626;23.382;2023-07-29T04:17:28;94280.38;;;18.65;100.00
10006;BME280;5042;42.626;23.382;2023-07-29T04:19:55;94292.09;;;19.20;100.00
10006;BME280;5042;42.626;23.382;2023-07-29T04:22:22;94297.03;;;19.72;100.00
10006;BME280;5042;42.626;23.382;2023-07-29T04:24:48;94299.03;;;20.09;100.00
10006;BME280;5042;42.626;23.382;2023-07-29T04:27:15;94294.72;;;20.57;100.00
10006;BME280;5042;42.626;23.382;2023-07-29T04:29:42;94298.31;;;21.05;100.00
10006;BME280;5042;42.626;23.382;2023-07-29T04:32:10;94294.88;;;21.52;100.00
10006;BME280;5042;42.626;23.382;2023-07-29T04:34:36;94289.94;;;21.81;100.00
10006;BME280;5042;42.626;23.382;2023-07-29T04:37:03;94294.03;;;22.10;96.12
10006;BME280;5042;42.626;23.382;2023-07-29T04:39:30;94299.19;;;22.37;93.02
10006;BME280;5042;42.626;23.382;2023-07-29T04:41:57;94309.66;;;22.84;90.79
10006;BME280;5042;42.626;23.382;2023-07-29T04:44:23;94310.47;;;23.00;85.15
10006;BME280;5042;42.626;23.382;2023-07-29T04:46:50;94304.84;;;23.12;83.26
10006;BME280;5042;42.626;23.382;2023-07-29T04:49:18;94303.44;;;23.50;85.17
10006;BME280;5042;42.626;23.382;2023-07-29T04:51:45;94311.88;;;24.04;80.46
10006;BME280;5042;42.626;23.382;2023-07-29T04:54:11;94311.03;;;24.58;79.53
10006;BME280;5042;42.626;23.382;2023-07-29T04:56:38;94319.53;;;25.05;76.39
10006;BME280;5042;42.626;23.382;2023-07-29T04:59:05;94325.94;;;25.09;71.18
10006;BME280;5042;42.626;23.382;2023-07-29T05:01:33;94330.41;;;24.89;72.20
10006;BME280;5042;42.626;23.382;2023-07-29T05:04:00;94321.78;;;23.98;74.56
10006;BME280;5042;42.626;23.382;2023-07-29T05:06:28;94318.47;;;23.36;79.95
10006;BME280;5042;42.626;23.382;2023-07-29T05:08:56;94321.44;;;22.99;84.06
10006;BME280;5042;42.626;23.382;2023-07-29T05:11:23;94320.88;;;22.92;86.08
10006;BME280;5042;42.626;23.382;2023-07-29T05:13:50;94313.41;;;22.99;83.48
10006;BME280;5042;42.626;23.382;2023-07-29T05:16:17;94325.69;;;23.31;87.40
10006;BME280;5042;42.626;23.382;2023-07-29T05:18:44;94331.59;;;23.33;84.59
10006;BME280;5042;42.626;23.382;2023-07-29T05:21:10;94329.94;;;23.42;85.55
10006;BME280;5042;42.626;23.382;2023-07-29T05:23:41;94335.00;;;24.34;84.61
10006;BME280;5042;42.626;23.382;2023-07-29T05:26:08;94336.47;;;25.34;74.02
10006;BME280;5042;42.626;23.382;2023-07-29T05:28:34;94349.34;;;25.91;72.14
10006;BME280;5042;42.626;23.382;2023-07-29T05:31:01;94314.88;;;25.98;67.75
10006;BME280;5042;42.626;23.382;2023-07-29T05:33:28;94350.72;;;26.74;68.18
10006;BME280;5042;42.626;23.382;2023-07-29T05:35:55;94361.72;;;27.11;63.73
10006;BME280;5042;42.626;23.382;2023-07-29T05:38:21;94351.13;;;27.19;62.71
10006;BME280;5042;42.626;23.382;2023-07-29T05:40:49;94356.81;;;27.64;60.66
10006;BME280;5042;42.626;23.382;2023-07-29T05:43:16;94361.25;;;27.41;61.74
10006;BME280;5042;42.626;23.382;2023-07-29T05:45:43;94362.06;;;27.88;63.41
10006;BME280;5042;42.626;23.382;2023-07-29T05:48:09;94362.03;;;28.44;60.09
10006;BME280;5042;42.626;23.382;2023-07-29T05:50:36;94373.41;;;28.68;57.52
10006;BME280;5042;42.626;23.382;2023-07-29T05:53:03;94366.56;;;28.85;56.36
10006;BME280;5042;42.626;23.382;2023-07-29T05:55:30;94367.03;;;28.23;57.50
10006;BME280;5042;42.626;23.382;2023-07-29T05:57:58;94360.06;;;28.08;56.87
10006;BME280;5042;42.626;23.382;2023-07-29T06:00:24;94370.25;;;28.25;58.76
10006;BME280;5042;42.626;23.382;2023-07-29T06:02:51;94353.47;;;28.56;55.37
10006;BME280;5042;42.626;23.382;2023-07-29T06:05:18;94351.53;;;28.92;56.16
10006;BME280;5042;42.626;23.382;2023-07-29T06:07:44;94366.56;;;29.44;53.65
10006;BME280;5042;42.626;23.382;2023-07-29T06:10:13;94363.84;;;29.66;53.04
10006;BME280;5042;42.626;23.382;2023-07-29T06:12:43;94370.88;;;29.53;51.88
10006;BME280;5042;42.626;23.382;2023-07-29T06:15:11;94353.44;;;29.28;50.89
10006;BME280;5042;42.626;23.382;2023-07-29T06:17:38;94359.00;;;29.32;52.56
10006;BME280;5042;42.626;23.382;2023-07-29T06:20:06;94362.38;;;29.15;52.30
10006;BME280;5042;42.626;23.382;2023-07-29T06:22:32;94361.34;;;29.47;55.53
10006;BME280;5042;42.626;23.382;2023-07-29T06:24:59;94355.16;;;29.78;52.51
10006;BME280;5042;42.626;23.382;2023-07-29T06:27:26;94350.13;;;29.85;51.60
10006;BME280;5042;42.626;23.382;2023-07-29T06:29:53;94357.25;;;30.21;49.33
10006;BME280;5042;42.626;23.382;2023-07-29T06:32:21;94355.81;;;30.23;48.03
10006;BME280;5042;42.626;23.382;2023-07-29T06:34:47;94360.22;;;30.59;50.64
10006;BME280;5042;42.626;23.382;2023-07-29T06:37:14;94349.53;;;30.46;49.64
10006;BME280;5042;42.626;23.382;2023-07-29T06:39:41;94347.19;;;30.13;48.89
10006;BME280;5042;42.626;23.382;2023-07-29T06:42:07;94343.09;;;30.24;47.88
10006;BME280;5042;42.626;23.382;2023-07-29T06:44:34;94341.75;;;30.53;45.31
10006;BME280;5042;42.626;23.382;2023-07-29T06:47:01;94336.19;;;30.67;50.38
10006;BME280;5042;42.626;23.382;2023-07-29T06:49:29;94342.91;;;30.12;46.29
10006;BME280;5042;42.626;23.382;2023-07-29T06:51:56;94336.78;;;29.35;47.97
10006;BME280;5042;42.626;23.382;2023-07-29T06:54:24;94330.91;;;29.33;49.81
10006;BME280;5042;42.626;23.382;2023-07-29T06:56:51;94321.25;;;28.95;51.88
10006;BME280;5042;42.626;23.382;2023-07-29T06:59:18;94332.19;;;28.90;49.63
10006;BME280;5042;42.626;23.382;2023-07-29T07:01:45;94333.22;;;29.26;49.42
10006;BME280;5042;42.626;23.382;2023-07-29T07:04:11;94329.41;;;29.72;54.13
10006;BME280;5042;42.626;23.382;2023-07-29T07:06:39;94329.84;;;30.05;49.57
10006;BME280;5042;42.626;23.382;2023-07-29T07:09:06;94333.44;;;30.32;47.38
10006;BME280;5042;42.626;23.382;2023-07-29T07:11:33;94328.97;;;30.27;50.42
10006;BME280;5042;42.626;23.382;2023-07-29T07:13:59;94328.56;;;30.69;48.65
10006;BME280;5042;42.626;23.382;2023-07-29T07:16:26;94333.81;;;30.82;48.63
10006;BME280;5042;42.626;23.382;2023-07-29T07:18:55;94333.38;;;30.23;50.14
10006;BME280;5042;42.626;23.382;2023-07-29T07:21:22;94338.25;;;30.52;53.02
10006;BME280;5042;42.626;23.382;2023-07-29T07:23:50;94303.16;;;30.21;48.58
10006;BME280;5042;42.626;23.382;2023-07-29T07:26:17;94331.31;;;29.80;48.46
10006;BME280;5042;42.626;23.382;2023-07-29T07:28:44;94336.06;;;29.21;51.40
10006;BME280;5042;42.626;23.382;2023-07-29T07:31:10;94328.28;;;28.83;50.91
10006;BME280;5042;42.626;23.382;2023-07-29T07:33:37;94322.22;;;28.77;54.38
10006;BME280;5042;42.626;23.382;2023-07-29T07:36:04;94323.34;;;28.99;52.68
10006;BME280;5042;42.626;23.382;2023-07-29T07:38:31;94326.38;;;29.73;52.15
10006;BME280;5042;42.626;23.382;2023-07-29T07:40:59;94317.78;;;30.20;48.29
10006;BME280;5042;42.626;23.382;2023-07-29T07:43:26;94326.31;;;29.33;49.63
10006;BME280;5042;42.626;23.382;2023-07-29T07:45:58;94325.88;;;29.17;55.60
10006;BME280;5042;42.626;23.382;2023-07-29T07:48:25;94322.72;;;30.18;51.36
10006;BME280;5042;42.626;23.382;2023-07-29T07:50:51;94330.47;;;30.59;51.37
10006;BME280;5042;42.626;23.382;2023-07-29T07:53:18;94332.25;;;31.08;46.74
10006;BME280;5042;42.626;23.382;2023-07-29T07:55:45;94326.09;;;30.32;47.13
10006;BME280;5042;42.626;23.382;2023-07-29T07:58:13;94335.31;;;29.83;49.97
10006;BME280;5042;42.626;23.382;2023-07-29T08:00:40;94330.22;;;29.81;52.35
10006;BME280;5042;42.626;23.382;2023-07-29T08:03:07;94325.56;;;30.04;52.83
10006;BME280;5042;42.626;23.382;2023-07-29T08:05:33;94330.94;;;30.61;50.44
10006;BME280;5042;42.626;23.382;2023-07-29T08:08:00;94332.38;;;31.28;56.42
10006;BME280;5042;42.626;23.382;2023-07-29T08:10:27;94338.69;;;31.67;46.82
10006;BME280;5042;42.626;23.382;2023-07-29T08:12:53;94335.88;;;31.46;44.94
10006;BME280;5042;42.626;23.382;2023-07-29T08:15:21;94337.16;;;31.96;44.92
10006;BME280;5042;42.626;23.382;2023-07-29T08:17:48;94333.69;;;31.87;44.71
10006;BME280;5042;42.626;23.382;2023-07-29T08:20:15;94330.41;;;31.73;44.06
10006;BME280;5042;42.626;23.382;2023-07-29T08:22:41;94339.25;;;32.29;47.09
10006;BME280;5042;42.626;23.382;2023-07-29T08:25:08;94342.19;;;32.53;42.67
10006;BME280;5042;42.626;23.382;2023-07-29T08:27:35;94329.53;;;32.58;41.38
10006;BME280;5042;42.626;23.382;2023-07-29T08:30:02;94335.22;;;32.35;42.64
10006;BME280;5042;42.626;23.382;2023-07-29T08:32:30;94335.03;;;32.10;41.10
10006;BME280;5042;42.626;23.382;2023-07-29T08:34:57;94327.06;;;32.05;44.10
10006;BME280;5042;42.626;23.382;2023-07-29T08:37:23;94334.75;;;32.03;42.52
10006;BME280;5042;42.626;23.382;2023-07-29T08:39:50;94337.13;;;31.58;41.34
10006;BME280;5042;42.626;23.382;2023-07-29T08:42:19;94312.47;;;31.42;43.65
10006;BME280;5042;42.626;23.382;2023-07-29T08:44:49;94326.06;;;31.80;46.09
10006;BME280;5042;42.626;23.382;2023-07-29T08:47:16;94323.19;;;30.86;40.94
10006;BME280;5042;42.626;23.382;2023-07-29T08:49:44;94318.69;;;31.08;44.85
10006;BME280;5042;42.626;23.382;2023-07-29T08:52:12;94314.81;;;31.61;42.33
10006;BME280;5042;42.626;23.382;2023-07-29T08:54:40;94320.44;;;32.24;40.93
10006;BME280;5042;42.626;23.382;2023-07-29T08:57:07;94311.56;;;32.15;39.85
10006;BME280;5042;42.626;23.382;2023-07-29T08:59:34;94312.13;;;31.52;39.88
10006;BME280;5042;42.626;23.382;2023-07-29T09:02:01;94312.28;;;31.30;39.18
10006;BME280;5042;42.626;23.382;2023-07-29T09:04:27;94305.19;;;30.90;45.06
10006;BME280;5042;42.626;23.382;2023-07-29T09:06:56;94289.56;;;30.96;40.88
10006;BME280;5042;42.626;23.382;2023-07-29T09:09:25;94308.06;;;31.67;48.96
10006;BME280;5042;42.626;23.382;2023-07-29T09:11:52;94302.28;;;32.45;42.49
10006;BME280;5042;42.626;23.382;2023-07-29T09:14:18;94303.72;;;32.72;39.65
10006;BME280;5042;42.626;23.382;2023-07-29T09:16:46;94305.31;;;32.94;41.10
10006;BME280;5042;42.626;23.382;2023-07-29T09:19:12;94313.19;;;33.42;41.91
10006;BME280;5042;42.626;23.382;2023-07-29T09:21:40;94305.84;;;33.54;43.58
10006;BME280;5042;42.626;23.382;2023-07-29T09:24:08;94299.25;;;33.43;40.96
10006;BME280;5042;42.626;23.382;2023-07-29T09:26:36;94278.88;;;33.37;38.61
10006;BME280;5042;42.626;23.382;2023-07-29T09:29:02;94301.53;;;33.41;33.95
10006;BME280;5042;42.626;23.382;2023-07-29T09:31:29;94288.97;;;32.82;34.09
10006;BME280;5042;42.626;23.382;2023-07-29T09:33:57;94261.31;;;31.79;34.88
10006;BME280;5042;42.626;23.382;2023-07-29T09:36:24;94283.28;;;31.47;38.74
10006;BME280;5042;42.626;23.382;2023-07-29T09:38:55;94285.13;;;31.64;36.25
10006;BME280;5042;42.626;23.382;2023-07-29T09:41:24;94283.59;;;31.55;36.04
10006;BME280;5042;42.626;23.382;2023-07-29T09:43:55;94286.94;;;31.90;38.84
10006;BME280;5042;42.626;23.382;2023-07-29T09:46:23;94284.75;;;32.43;34.23
10006;BME280;5042;42.626;23.382;2023-07-29T09:48:53;94281.69;;;32.23;34.00
10006;BME280;5042;42.626;23.382;2023-07-29T09:51:20;94282.41;;;32.62;33.02
10006;BME280;5042;42.626;23.382;2023-07-29T09:53:47;94264.97;;;32.42;33.30
10006;BME280;5042;42.626;23.382;2023-07-29T09:56:15;94270.84;;;32.86;34.69
10006;BME280;5042;42.626;23.382;2023-07-29T09:58:44;94280.34;;;33.34;36.71
10006;BME280;5042;42.626;23.382;2023-07-29T10:01:11;94271.88;;;33.48;34.77
10006;BME280;5042;42.626;23.382;2023-07-29T10:03:38;94272.97;;;33.93;39.41
10006;BME280;5042;42.626;23.382;2023-07-29T10:06:06;94269.59;;;34.20;36.35
10006;BME280;5042;42.626;23.382;2023-07-29T10:08:33;94274.31;;;34.24;32.08
10006;BME280;5042;42.626;23.382;2023-07-29T10:11:05;94264.13;;;34.08;32.94
10006;BME280;5042;42.626;23.382;2023-07-29T10:13:32;94219.16;;;33.98;32.82
10006;BME280;5042;42.626;23.382;2023-07-29T10:16:00;94268.88;;;34.36;30.67
10006;BME280;5042;42.626;23.382;2023-07-29T10:18:29;94262.53;;;34.32;32.26
10006;BME280;5042;42.626;23.382;2023-07-29T10:20:58;94256.41;;;34.35;32.40
10006;BME280;5042;42.626;23.382;2023-07-29T10:23:26;94261.16;;;34.38;32.54
10006;BME280;5042;42.626;23.382;2023-07-29T10:25:58;94255.13;;;34.45;30.61
10006;BME280;5042;42.626;23.382;2023-07-29T10:28:29;94222.09;;;34.06;30.35
10006;BME280;5042;42.626;23.382;2023-07-29T10:30:57;94245.19;;;34.24;31.41
10006;BME280;5042;42.626;23.382;2023-07-29T10:33:25;94238.03;;;34.07;34.59
10006;BME280;5042;42.626;23.382;2023-07-29T10:35:52;94234.00;;;34.01;34.23
10006;BME280;5042;42.626;23.382;2023-07-29T10:38:21;94204.38;;;33.38;29.20
10006;BME280;5042;42.626;23.382;2023-07-29T10:40:50;94232.22;;;32.68;32.94
10006;BME280;5042;42.626;23.382;2023-07-29T10:43:20;94229.53;;;32.18;30.01
10006;BME280;5042;42.626;23.382;2023-07-29T10:45:50;94220.75;;;31.91;32.53
10006;BME280;5042;42.626;23.382;2023-07-29T10:48:42;94211.03;;;31.99;31.73
10006;BME280;5042;42.626;23.382;2023-07-29T10:51:28;94209.75;;;31.96;34.93
10006;BME280;5042;42.626;23.382;2023-07-29T10:53:57;94204.69;;;32.16;36.07
10006;BME280;5042;42.626;23.382;2023-07-29T10:56:28;94209.97;;;32.33;33.67
10006;BME280;5042;42.626;23.382;2023-07-29T10:58:59;94207.47;;;32.28;32.41
10006;BME280;5042;42.626;23.382;2023-07-29T11:01:29;94203.16;;;31.76;31.61
10006;BME280;5042;42.626;23.382;2023-07-29T11:04:24;94202.00;;;31.56;32.80
10006;BME280;5042;42.626;23.382;2023-07-29T11:07:20;94195.38;;;31.27;34.54
10006;BME280;5042;42.626;23.382;2023-07-29T11:09:57;94195.81;;;30.91;33.39
10006;BME280;5042;42.626;23.382;2023-07-29T11:12:41;94190.88;;;30.76;33.43
10006;BME280;5042;42.626;23.382;2023-07-29T11:15:16;94182.47;;;30.69;34.33
10006;BME280;5042;42.626;23.382;2023-07-29T11:17:45;94152.34;;;30.88;34.81
10006;BME280;5042;42.626;23.382;2023-07-29T11:20:14;94187.13;;;31.62;35.47
10006;BME280;5042;42.626;23.382;2023-07-29T11:22:42;94180.75;;;31.88;30.97
10006;BME280;5042;42.626;23.382;2023-07-29T11:25:10;94184.47;;;32.13;37.50
10006;BME280;5042;42.626;23.382;2023-07-29T11:27:37;94185.91;;;32.52;34.07
10006;BME280;5042;42.626;23.382;2023-07-29T11:30:06;94152.59;;;32.64;33.48
10006;BME280;5042;42.626;23.382;2023-07-29T11:32:33;94186.88;;;33.02;31.73
10006;BME280;5042;42.626;23.382;2023-07-29T11:35:05;94193.84;;;32.91;29.85
10006;BME280;5042;42.626;23.382;2023-07-29T11:37:34;94180.81;;;32.30;30.13
10006;BME280;5042;42.626;23.382;2023-07-29T11:40:01;94140.28;;;31.62;31.71
10006;BME280;5042;42.626;23.382;2023-07-29T11:42:31;94163.81;;;32.00;32.41
10006;BME280;5042;42.626;23.382;2023-07-29T11:44:58;94169.31;;;31.82;31.01
10006;BME280;5042;42.626;23.382;2023-07-29T11:47:25;94172.03;;;31.53;31.89
10006;BME280;5042;42.626;23.382;2023-07-29T11:49:51;94172.03;;;31.53;32.66
10006;BME280;5042;42.626;23.382;2023-07-29T11:52:18;94169.91;;;31.58;31.00
10006;BME280;5042;42.626;23.382;2023-07-29T11:54:48;94166.00;;;31.77;33.73
10006;BME280;5042;42.626;23.382;2023-07-29T11:57:16;94163.03;;;32.20;32.69
10006;BME280;5042;42.626;23.382;2023-07-29T11:59:44;94168.38;;;32.50;31.06
10006;BME280;5042;42.626;23.382;2023-07-29T12:02:13;94137.41;;;32.51;33.30
10006;BME280;5042;42.626;23.382;2023-07-29T12:04:41;94164.13;;;32.40;30.06
10006;BME280;5042;42.626;23.382;2023-07-29T12:07:09;94165.25;;;32.39;33.29
10006;BME280;5042;42.626;23.382;2023-07-29T12:09:37;94164.59;;;32.63;32.63
10006;BME280;5042;42.626;23.382;2023-07-29T12:12:06;94153.94;;;32.91;31.24
10006;BME280;5042;42.626;23.382;2023-07-29T12:14:34;94149.03;;;33.18;31.27
10006;BME280;5042;42.626;23.382;2023-07-29T12:17:01;94140.19;;;33.33;32.25
10006;BME280;5042;42.626;23.382;2023-07-29T12:19:32;94152.31;;;33.48;32.84
10006;BME280;5042;42.626;23.382;2023-07-29T12:21:59;94146.88;;;33.36;32.31
10006;BME280;5042;42.626;23.382;2023-07-29T12:24:26;94146.53;;;33.50;31.37
10006;BME280;5042;42.626;23.382;2023-07-29T12:26:53;94102.34;;;32.91;31.36
10006;BME280;5042;42.626;23.382;2023-07-29T12:29:21;94140.03;;;33.05;30.84
10006;BME280;5042;42.626;23.382;2023-07-29T12:31:48;94137.63;;;32.91;30.85
10006;BME280;5042;42.626;23.382;2023-07-29T12:34:18;94136.75;;;32.54;29.53
10006;BME280;5042;42.626;23.382;2023-07-29T12:36:47;94081.91;;;31.64;30.48
10006;BME280;5042;42.626;23.382;2023-07-29T12:39:18;94117.44;;;31.42;31.71
10006;BME280;5042;42.626;23.382;2023-07-29T12:41:45;94124.59;;;31.67;32.62
10006;BME280;5042;42.626;23.382;2023-07-29T12:44:12;94121.91;;;31.88;30.63
10006;BME280;5042;42.626;23.382;2023-07-29T12:46:41;94131.91;;;32.18;32.88
10006;BME280;5042;42.626;23.382;2023-07-29T12:49:07;94135.06;;;32.62;31.78
10006;BME280;5042;42.626;23.382;2023-07-29T12:51:34;94136.59;;;32.84;30.26
10006;BME280;5042;42.626;23.382;2023-07-29T12:54:01;94139.56;;;32.58;29.56
10006;BME280;5042;42.626;23.382;2023-07-29T12:56:29;94125.41;;;31.89;29.83
10006;BME280;5042;42.626;23.382;2023-07-29T12:58:56;94121.94;;;31.29;30.43
10006;BME280;5042;42.626;23.382;2023-07-29T13:01:23;94126.00;;;31.44;30.02